Time;durP1;ratioP1;P1;durP2;ratioP2;P2;SDS_P1;SDS_P2;PMS_P1;PMS_P2;Temp;Humidity;BMP_temperature;BMP_pressure;BME280_temperature;BME280_humidity;BME280_pressure;Samples;Min_cycle;Max_cycle;Signal;HPM_P1;HPM_P2
2024/01/26 00:01:36;;;;;;;;;;;12.50;49.50;;;12.75;51.35;101533.84;5033051;28;19971;-35
2024/01/26 00:04:04;;;;;;;;;;;12.50;49.50;;;12.74;52.31;101521.97;5032293;28;20336;-35
2024/01/26 00:06:32;;;;;;;;;;;12.50;49.50;;;12.75;52.68;101523.78;5032809;28;19932;-35
2024/01/26 00:09:10;;;;;;;;;;;12.50;49.60;;;12.75;51.84;101528.81;5032891;28;20442;-35
2024/01/26 00:11:38;;;;;;;;;;;12.50;49.60;;;12.64;52.53;101497.91;5032556;28;19933;-35
2024/01/26 00:14:07;;;;;;;;;;;12.50;49.60;;;12.74;52.13;101521.06;5032306;28;20289;-35
2024/01/26 00:16:36;;;;;;;;;;;12.50;49.60;;;12.74;52.10;101514.41;5032746;28;19972;-36
2024/01/26 00:19:04;;;;;;;;;;;12.50;49.60;;;12.74;52.36;101511.91;5033013;28;19925;-35
2024/01/26 00:21:32;;;;;;;;;;;12.50;49.60;;;12.75;51.88;101511.22;5032468;28;20448;-35
2024/01/26 00:24:01;;;;;;;;;;;12.50;49.60;;;12.75;51.84;101508.69;5031969;28;19929;-35
2024/01/26 00:26:30;;;;;;;;;;;12.50;49.60;;;12.75;52.33;101502.75;5024587;28;19929;-34
2024/01/26 00:28:58;;;;;;;;;;;12.50;49.70;;;12.74;52.50;101501.84;5032370;28;20380;-35
2024/01/26 00:31:26;;;;;;;;;;;12.50;49.60;;;12.74;51.77;101506.88;5032496;28;19975;-35
2024/01/26 00:33:54;;;;;;;;;;;12.50;49.70;;;12.74;52.46;101501.84;5031850;28;20039;-35
2024/01/26 00:36:22;;;;;;;;;;;12.50;49.70;;;12.74;52.79;101500.94;5032260;28;19925;-35
2024/01/26 00:38:50;;;;;;;;;;;12.50;49.70;;;12.74;52.26;101494.31;5032210;28;19925;-35
2024/01/26 00:41:18;;;;;;;;;;;12.50;49.70;;;12.75;51.93;101498.63;5032299;28;20385;-34
2024/01/26 00:43:48;;;;;;;;;;;12.50;49.70;;;12.76;51.81;101500.47;5023807;28;19973;-35
2024/01/26 00:46:15;;;;;;;;;;;12.50;49.70;;;12.73;51.88;101495.00;5032061;28;20476;-35
2024/01/26 00:48:43;;;;;;;;;;;12.50;49.70;;;12.75;52.45;101492.69;5032189;28;20016;-35
2024/01/26 00:51:12;;;;;;;;;;;12.50;49.80;;;12.74;52.16;101486.75;5034968;28;20344;-35
2024/01/26 00:53:40;;;;;;;;;;;12.50;49.70;;;12.71;52.36;101476.28;5031363;28;20007;-36
2024/01/26 00:56:08;;;;;;;;;;;12.50;49.70;;;12.66;52.42;101467.22;5032206;28;19984;-36
2024/01/26 00:58:36;;;;;;;;;;;12.50;49.80;;;12.76;52.51;101476.91;5032060;28;20420;-35
2024/01/26 01:01:05;;;;;;;;;;;12.50;49.70;;;12.72;52.39;101478.09;5032028;28;20260;-35
2024/01/26 01:03:33;;;;;;;;;;;12.50;49.70;;;12.75;52.54;101477.63;5031315;28;19972;-35
2024/01/26 01:06:01;;;;;;;;;;;12.50;49.80;;;12.73;52.33;101479.00;5032444;28;19933;-36
2024/01/26 01:08:29;;;;;;;;;;;12.50;49.80;;;12.73;52.40;101479.91;5032442;28;19925;-35
2024/01/26 01:10:57;;;;;;;;;;;12.50;49.80;;;12.70;52.60;101477.00;5032655;28;20442;-35
2024/01/26 01:13:25;;;;;;;;;;;12.50;49.80;;;12.71;51.88;101481.31;5031385;28;19925;-35
2024/01/26 01:15:53;;;;;;;;;;;12.50;49.80;;;12.72;52.89;101473.06;5031883;28;20008;-36
2024/01/26 01:18:23;;;;;;;;;;;12.50;49.80;;;12.73;52.21;101469.84;5032035;28;19976;-35
2024/01/26 01:20:51;;;;;;;;;;;12.50;49.80;;;12.73;52.70;101463.91;5024212;28;20423;-35
2024/01/26 01:23:19;;;;;;;;;;;12.50;49.80;;;12.74;52.22;101461.63;5031373;28;19959;-35
2024/01/26 01:25:46;;;;;;;;;;;12.50;49.90;;;12.73;51.45;101463.91;5031709;28;19926;-35
2024/01/26 01:28:14;;;;;;;;;;;12.50;49.90;;;12.74;52.97;101456.59;5031937;28;20020;-35
2024/01/26 01:30:42;;;;;;;;;;;12.50;49.80;;;12.73;52.24;101464.81;5031372;28;20556;-35
2024/01/26 01:33:10;;;;;;;;;;;12.50;49.80;;;12.74;52.48;101466.63;5031311;28;19925;-35
2024/01/26 01:35:40;;;;;;;;;;;12.50;49.90;;;12.73;51.83;101459.78;5031637;28;19991;-35
2024/01/26 01:38:08;;;;;;;;;;;12.50;49.90;;;12.72;51.90;101455.47;5032198;28;19979;-35
2024/01/26 01:40:36;;;;;;;;;;;12.50;49.90;;;12.74;52.33;101454.06;5031614;28;19925;-35
2024/01/26 01:43:04;;;;;;;;;;;12.50;49.80;;;12.76;51.72;101454.28;5030880;28;20005;-35
2024/01/26 01:45:32;;;;;;;;;;;12.50;49.80;;;12.74;52.58;101444.00;5031846;28;19925;-35
2024/01/26 01:48:00;;;;;;;;;;;12.50;49.80;;;12.71;52.28;101438.56;5031949;28;19925;-35
2024/01/26 01:50:28;;;;;;;;;;;12.50;49.80;;;12.76;51.93;101444.22;5066772;22;20308;-35
2024/01/26 01:52:57;;;;;;;;;;;12.50;49.80;;;12.77;52.66;101441.88;5051664;28;19925;-35
2024/01/26 01:55:25;;;;;;;;;;;12.50;49.90;;;12.77;52.57;101441.00;5051802;28;20401;-36
2024/01/26 01:57:53;;;;;;;;;;;12.50;49.90;;;12.77;52.46;101446.91;5052676;28;19935;-35
2024/01/26 02:00:21;;;;;;;;;;;12.50;49.90;;;12.77;52.46;101436.84;5052461;28;19925;-36
2024/01/26 02:02:49;;;;;;;;;;;12.50;49.90;;;12.78;52.07;101443.72;5054389;28;19975;-35
2024/01/26 02:05:18;;;;;;;;;;;12.50;49.90;;;12.78;52.46;101438.69;5056000;28;20035;-36
2024/01/26 02:07:50;;;;;;;;;;;12.50;49.90;;;12.78;52.32;101443.72;5055728;28;19931;-35
2024/01/26 02:10:20;;;;;;;;;;;12.60;50.60;;;12.79;52.51;101443.00;5056127;28;20335;-35
2024/01/26 02:12:48;;;;;;;;;;;12.50;50.00;;;12.77;52.28;101436.84;5055477;28;19971;-36
2024/01/26 02:15:16;;;;;;;;;;;12.50;49.90;;;12.80;52.04;101442.31;5055897;28;19978;-36
2024/01/26 02:17:44;;;;;;;;;;;12.50;49.90;;;12.80;51.73;101442.31;5055580;28;19976;-35
2024/01/26 02:20:12;;;;;;;;;;;12.60;50.00;;;12.79;52.43;101435.47;5055537;28;20347;-35
2024/01/26 02:22:40;;;;;;;;;;;12.50;49.90;;;12.79;53.09;101427.91;5054756;28;20033;-35
2024/01/26 02:25:09;;;;;;;;;;;12.50;49.90;;;12.79;52.55;101417.88;5055153;28;19928;-35
2024/01/26 02:27:37;;;;;;;;;;;12.50;49.90;;;12.80;53.01;101413.75;5055285;28;19929;-35
2024/01/26 02:30:07;;;;;;;;;;;12.50;49.90;;;12.75;52.30;101409.72;5055843;28;19975;-35
2024/01/26 02:32:35;;;;;;;;;;;12.50;49.90;;;12.74;51.88;101406.28;5046320;28;19956;-35
2024/01/26 02:35:04;;;;;;;;;;;12.60;50.00;;;12.79;52.56;101425.41;5055357;28;19928;-35
2024/01/26 02:37:32;;;;;;;;;;;12.60;50.00;;;12.79;52.18;101422.88;5055166;28;20011;-35
2024/01/26 02:40:00;;;;;;;;;;;12.60;50.00;;;12.76;52.39;101407.41;5056147;28;19986;-35
2024/01/26 02:42:29;;;;;;;;;;;12.50;49.90;;;12.78;52.16;101423.59;5056829;28;19932;-39
2024/01/26 02:44:57;;;;;;;;;;;12.60;50.00;;;12.78;52.28;101413.53;5070122;28;19929;-35
2024/01/26 02:47:25;;;;;;;;;;;12.50;49.90;;;12.78;52.22;101412.63;5072274;28;19924;-39
2024/01/26 02:49:53;;;;;;;;;;;12.50;49.90;;;12.77;52.47;101404.16;5056664;28;19929;-35
2024/01/26 02:52:21;;;;;;;;;;;12.50;50.00;;;12.78;52.50;101418.56;5054038;28;19925;-35
2024/01/26 02:54:51;;;;;;;;;;;12.50;50.00;;;12.76;52.86;101404.91;5054230;28;19925;-35
2024/01/26 02:57:19;;;;;;;;;;;12.50;50.10;;;12.78;52.38;101408.50;5055785;28;20012;-35
2024/01/26 02:59:49;;;;;;;;;;;12.50;50.00;;;12.78;52.98;101408.50;5054973;28;20039;-36
2024/01/26 03:02:17;;;;;;;;;;;12.50;50.00;;;12.77;52.56;101411.72;5053119;28;19925;-36
2024/01/26 03:04:45;;;;;;;;;;;12.50;50.00;;;12.77;53.35;101406.69;5053916;28;20404;-36
2024/01/26 03:07:13;;;;;;;;;;;12.50;50.10;;;12.76;52.50;101399.88;5045512;28;20004;-36
2024/01/26 03:09:41;;;;;;;;;;;12.50;50.10;;;12.76;52.55;101398.97;5053805;28;19929;-36
2024/01/26 03:12:09;;;;;;;;;;;12.50;50.10;;;12.77;52.67;101406.69;5053510;28;19924;-36
2024/01/26 03:14:37;;;;;;;;;;;12.50;50.10;;;12.79;52.31;101402.78;5053231;28;19951;-36
2024/01/26 03:17:07;;;;;;;;;;;12.50;50.10;;;12.79;52.38;101410.31;5054203;28;19925;-36
2024/01/26 03:19:35;;;;;;;;;;;12.50;50.10;;;12.76;53.34;101399.88;5053626;28;19924;-35
2024/01/26 03:22:04;;;;;;;;;;;12.50;50.10;;;12.77;52.62;101410.84;5053292;28;19925;-35
2024/01/26 03:24:32;;;;;;;;;;;12.50;50.10;;;12.77;52.86;101406.69;5053862;28;19974;-36
2024/01/26 03:27:00;;;;;;;;;;;12.50;50.20;;;12.77;52.74;101401.66;5053800;28;20019;-35
2024/01/26 03:29:27;;;;;;;;;;;12.50;50.20;;;12.78;52.81;101408.50;5053250;28;20430;-36
2024/01/26 03:31:55;;;;;;;;;;;12.50;50.20;;;12.77;53.07;101395.75;5045060;28;19925;-35
2024/01/26 03:34:24;;;;;;;;;;;12.50;50.80;;;12.79;52.84;101390.19;5054186;28;19956;-35
2024/01/26 03:36:53;;;;;;;;;;;12.50;50.20;;;12.78;51.96;101378.31;5054052;28;19982;-36
2024/01/26 03:39:20;;;;;;;;;;;12.50;50.20;;;12.77;52.07;101384.03;5053834;28;19971;-36
2024/01/26 03:41:49;;;;;;;;;;;12.50;50.30;;;12.78;53.26;101388.38;5053588;28;19936;-36
2024/01/26 03:44:17;;;;;;;;;;;12.50;50.30;;;12.72;52.72;101372.47;5054051;28;19936;-35
2024/01/26 03:46:45;;;;;;;;;;;12.50;50.20;;;12.80;52.47;101386.97;5053994;28;20311;-36
2024/01/26 03:49:13;;;;;;;;;;;12.60;50.30;;;12.78;53.16;101378.31;5054098;28;20024;-35
2024/01/26 03:51:43;;;;;;;;;;;12.50;50.20;;;12.79;52.77;101372.59;5054867;28;20326;-35
2024/01/26 03:54:11;;;;;;;;;;;12.60;50.30;;;12.75;53.40;101362.84;5053282;28;19925;-35
2024/01/26 03:56:39;;;;;;;;;;;12.60;50.30;;;12.80;52.54;101371.00;5053983;28;20304;-35
2024/01/26 03:59:07;;;;;;;;;;;12.60;50.30;;;12.79;52.42;101365.03;5053598;28;20384;-35
2024/01/26 04:01:35;;;;;;;;;;;12.60;50.30;;;12.79;53.21;101360.03;5053961;28;19948;-35
2024/01/26 04:04:04;;;;;;;;;;;12.60;50.30;;;12.78;52.54;101358.19;5054144;28;20034;-35
2024/01/26 04:06:39;;;;;;;;;;;12.60;50.40;;;12.81;52.88;101366.16;5053549;28;20488;-36
2024/01/26 04:09:09;;;;;;;;;;;12.50;50.20;;;12.81;53.33;101366.16;5053699;28;19929;-35
2024/01/26 04:11:37;;;;;;;;;;;12.60;50.40;;;12.79;52.96;101367.56;5053477;28;19929;-36
2024/01/26 04:14:05;;;;;;;;;;;12.60;50.40;;;12.79;53.02;101365.03;5053705;28;20332;-36
2024/01/26 04:16:33;;;;;;;;;;;12.60;50.40;;;12.81;53.08;101358.63;5053363;28;19925;-36
2024/01/26 04:19:01;;;;;;;;;;;12.60;50.30;;;12.79;52.71;101360.03;5053459;28;19955;-36
2024/01/26 04:21:29;;;;;;;;;;;12.60;50.30;;;12.79;52.92;101362.53;5052858;28;19983;-35
2024/01/26 04:23:57;;;;;;;;;;;12.60;50.40;;;12.80;53.04;101364.34;5052393;28;20436;-36
2024/01/26 04:26:27;;;;;;;;;;;12.60;50.40;;;12.77;53.44;101356.38;5052960;28;20300;-35
2024/01/26 04:28:56;;;;;;;;;;;12.60;50.40;;;12.83;53.25;101362.25;5052868;28;20016;-36
2024/01/26 04:31:24;;;;;;;;;;;12.60;50.40;;;12.81;52.90;101353.59;5052784;28;19925;-35
2024/01/26 04:33:52;;;;;;;;;;;12.60;50.40;;;12.81;53.14;101342.63;5051421;28;19932;-35
2024/01/26 04:36:20;;;;;;;;;;;12.60;51.00;;;12.82;53.00;101344.44;5053252;28;19924;-35
2024/01/26 04:38:48;;;;;;;;;;;12.60;50.40;;;12.81;53.22;101338.50;5052971;28;19925;-35
2024/01/26 04:41:16;;;;;;;;;;;12.60;50.40;;;12.81;53.31;101336.00;5052724;28;19940;-36
2024/01/26 04:43:45;;;;;;;;;;;12.60;50.50;;;12.81;52.77;101328.44;5052011;28;20027;-35
2024/01/26 04:46:13;;;;;;;;;;;12.60;51.10;;;12.81;52.84;101312.44;5052750;28;20396;-36
2024/01/26 04:48:41;;;;;;;;;;;12.60;50.40;;;12.82;53.05;101307.63;5052150;28;20380;-35
2024/01/26 04:51:10;;;;;;;;;;;12.60;50.40;;;12.82;52.48;101300.09;5053787;28;19925;-36
2024/01/26 04:53:38;;;;;;;;;;;12.60;50.50;;;12.82;52.18;101295.06;5051589;28;20299;-35
2024/01/26 04:56:06;;;;;;;;;;;12.60;50.40;;;12.80;52.70;101291.41;5053028;28;20311;-36
2024/01/26 04:58:34;;;;;;;;;;;12.60;50.50;;;12.82;52.20;101295.06;5051904;28;19925;-35
2024/01/26 05:01:04;;;;;;;;;;;12.60;50.50;;;12.82;52.73;101285.00;5051945;28;19964;-36
2024/01/26 05:03:32;;;;;;;;;;;12.60;50.50;;;12.80;52.85;101291.41;5051520;28;20395;-36
2024/01/26 05:06:00;;;;;;;;;;;12.60;50.60;;;12.79;53.11;101274.53;5044020;28;19951;-35
2024/01/26 05:08:28;;;;;;;;;;;12.60;50.50;;;12.81;52.78;101275.63;5052503;28;19931;-36
2024/01/26 05:10:56;;;;;;;;;;;12.60;50.60;;;12.80;53.30;101263.75;5052215;28;19931;-35
2024/01/26 05:13:25;;;;;;;;;;;12.60;50.60;;;12.79;52.88;101253.50;5051821;28;19935;-36
2024/01/26 05:15:53;;;;;;;;;;;12.60;50.60;;;12.78;53.21;101262.63;5051762;28;20044;-35
2024/01/26 05:18:23;;;;;;;;;;;12.60;50.60;;;12.80;53.47;101266.28;5052247;28;20031;-35
2024/01/26 05:20:51;;;;;;;;;;;12.60;50.60;;;12.80;53.25;101265.38;5051443;28;20023;-35
2024/01/26 05:23:19;;;;;;;;;;;12.60;50.60;;;12.80;52.75;101256.22;5051172;28;20026;-36
2024/01/26 05:25:48;;;;;;;;;;;12.60;50.60;;;12.79;53.47;101244.34;5051442;28;19968;-35
2024/01/26 05:28:16;;;;;;;;;;;12.60;50.70;;;12.79;53.12;101234.28;5051409;28;19928;-35
2024/01/26 05:30:44;;;;;;;;;;;12.60;50.60;;;12.80;53.23;101226.03;5051519;28;19935;-35
2024/01/26 05:33:12;;;;;;;;;;;12.60;50.70;;;12.78;53.72;101224.91;5050753;28;20454;-35
2024/01/26 05:35:42;;;;;;;;;;;12.60;50.60;;;12.79;53.71;101215.78;5051522;28;19929;-36
2024/01/26 05:38:10;;;;;;;;;;;12.60;50.60;;;12.80;52.89;101210.94;5054710;28;19925;-36
2024/01/26 05:40:38;;;;;;;;;;;12.60;50.70;;;12.79;53.28;101219.19;5055214;28;20007;-36
2024/01/26 05:43:06;;;;;;;;;;;12.60;50.60;;;12.81;52.94;101217.78;5054676;28;20455;-36
2024/01/26 05:45:34;;;;;;;;;;;12.60;50.70;;;12.80;53.10;101223.53;5055453;28;20016;-35
2024/01/26 05:48:02;;;;;;;;;;;12.60;50.70;;;12.80;53.47;101215.97;5047303;28;19931;-35
2024/01/26 05:50:30;;;;;;;;;;;12.60;50.70;;;12.79;52.73;101219.19;5057216;28;19935;-36
2024/01/26 05:52:59;;;;;;;;;;;12.60;50.80;;;12.81;53.47;101222.81;5054451;28;19964;-36
2024/01/26 05:55:27;;;;;;;;;;;12.60;50.70;;;12.82;52.83;101229.66;5054939;28;19929;-36
2024/01/26 05:57:56;;;;;;;;;;;12.60;50.80;;;12.82;53.66;101227.16;5055218;28;19925;-35
2024/01/26 06:00:23;;;;;;;;;;;12.60;50.70;;;12.83;52.85;101221.41;5057160;28;19929;-36
2024/01/26 06:02:52;;;;;;;;;;;12.60;50.70;;;12.82;53.60;101217.09;5054720;28;19967;-37
2024/01/26 06:05:20;;;;;;;;;;;12.60;50.90;;;12.81;52.61;101217.78;5054955;28;19975;-35
2024/01/26 06:07:48;;;;;;;;;;;12.60;50.80;;;12.84;52.93;101223.19;5054684;28;19983;-35
2024/01/26 06:10:18;;;;;;;;;;;12.60;50.80;;;12.82;53.45;101214.56;5055388;28;19931;-34
2024/01/26 06:12:45;;;;;;;;;;;12.60;50.80;;;12.85;52.94;101216.56;5054231;28;19925;-34
2024/01/26 06:15:15;;;;;;;;;;;12.60;50.80;;;12.84;53.49;101213.13;5055049;28;19925;-35
2024/01/26 06:17:43;;;;;;;;;;;12.60;50.70;;;12.83;52.88;101212.97;5054507;28;19956;-35
2024/01/26 06:20:13;;;;;;;;;;;12.60;50.80;;;12.84;53.25;101213.13;5054508;28;19928;-35
2024/01/26 06:22:41;;;;;;;;;;;12.60;50.80;;;12.85;53.46;101202.38;5054074;28;19928;-34
2024/01/26 06:25:08;;;;;;;;;;;12.60;50.80;;;12.82;53.54;101204.50;5054743;28;19924;-34
2024/01/26 06:27:38;;;;;;;;;;;12.60;50.90;;;12.84;53.50;101208.13;5046380;28;20360;-35
2024/01/26 06:30:07;;;;;;;;;;;12.60;50.80;;;12.83;52.73;101206.34;5054502;28;20031;-35
2024/01/26 06:32:35;;;;;;;;;;;12.60;50.80;;;12.85;53.61;101199.88;5053818;28;19929;-35
2024/01/26 06:35:04;;;;;;;;;;;12.60;50.80;;;12.82;53.44;101184.41;5054180;28;19939;-35
2024/01/26 06:37:32;;;;;;;;;;;12.60;50.80;;;12.83;53.02;101173.63;5054645;28;19932;-35
2024/01/26 06:40:00;;;;;;;;;;;12.60;50.80;;;12.85;53.72;101159.63;5054235;28;19933;-35
2024/01/26 06:42:29;;;;;;;;;;;12.60;50.80;;;12.82;52.77;101156.72;5053990;28;19925;-35
2024/01/26 06:44:58;;;;;;;;;;;12.60;50.90;;;12.84;53.56;101165.34;5054195;28;19970;-35
2024/01/26 06:47:27;;;;;;;;;;;12.60;50.90;;;12.83;53.78;101145.97;5054032;28;19932;-35
2024/01/26 06:49:55;;;;;;;;;;;12.60;50.90;;;12.84;53.50;101147.75;5055012;28;20007;-35
2024/01/26 06:52:23;;;;;;;;;;;12.60;50.90;;;12.83;53.56;101138.44;5053704;28;19925;-35
2024/01/26 06:54:50;;;;;;;;;;;12.60;50.90;;;12.83;53.23;101135.91;5053607;28;19924;-35
2024/01/26 06:57:18;;;;;;;;;;;12.60;50.90;;;12.83;53.77;101145.97;5054250;28;20344;-35
2024/01/26 06:59:46;;;;;;;;;;;12.60;50.90;;;12.84;53.21;101132.66;5053544;28;19967;-35
2024/01/26 07:02:16;;;;;;;;;;;12.60;50.90;;;12.83;53.26;101124.94;5053596;28;19951;-35
2024/01/26 07:04:44;;;;;;;;;;;12.60;50.90;;;12.84;53.23;101125.13;5053800;28;19935;-35
2024/01/26 07:07:12;;;;;;;;;;;12.60;50.90;;;12.83;54.06;101110.75;5053958;28;19968;-34
2024/01/26 07:09:40;;;;;;;;;;;12.60;51.00;;;12.85;53.28;101124.41;5053833;28;20359;-34
2024/01/26 07:12:08;;;;;;;;;;;12.60;50.90;;;12.86;53.14;101121.19;5053085;28;19925;-34
2024/01/26 07:14:36;;;;;;;;;;;12.60;51.00;;;12.84;53.62;101117.56;5053395;28;19935;-34
2024/01/26 07:17:04;;;;;;;;;;;12.60;51.00;;;12.85;53.19;101118.47;5053897;28;19955;-34
2024/01/26 07:19:33;;;;;;;;;;;12.60;51.00;;;12.84;53.59;101107.50;5053657;28;20007;-35
2024/01/26 07:22:01;;;;;;;;;;;12.60;50.90;;;12.84;53.35;101097.47;5052887;28;19935;-34
2024/01/26 07:24:29;;;;;;;;;;;12.60;51.00;;;12.86;53.66;101097.66;5053507;28;19931;-35
2024/01/26 07:26:57;;;;;;;;;;;12.60;50.90;;;12.85;53.15;101094.25;5053191;28;19970;-34
2024/01/26 07:29:25;;;;;;;;;;;12.60;51.00;;;12.84;53.74;101077.34;5053322;28;20426;-34
2024/01/26 07:31:53;;;;;;;;;;;12.60;50.90;;;12.85;53.26;101074.13;5052564;28;19925;-34
2024/01/26 07:34:21;;;;;;;;;;;12.60;50.90;;;12.85;53.59;101073.22;5053242;28;20011;-34
2024/01/26 07:36:51;;;;;;;;;;;12.60;50.90;;;12.85;53.47;101079.16;5053430;28;19931;-35
2024/01/26 07:39:21;;;;;;;;;;;12.60;50.90;;;12.86;53.96;101070.91;5053897;28;19931;-34
2024/01/26 07:41:49;;;;;;;;;;;12.60;50.90;;;12.85;53.29;101071.59;5054190;28;19924;-34
2024/01/26 07:44:17;;;;;;;;;;;12.60;50.90;;;12.84;53.28;101062.25;5052801;28;19925;-35
2024/01/26 07:46:45;;;;;;;;;;;12.60;50.90;;;12.85;53.68;101054.00;5053093;28;19935;-34
2024/01/26 07:49:13;;;;;;;;;;;12.60;50.90;;;12.85;53.04;101046.47;5053245;28;19968;-34
2024/01/26 07:51:42;;;;;;;;;;;12.60;50.80;;;12.86;53.54;101038.22;5056439;28;19925;-34
2024/01/26 07:54:11;;;;;;;;;;;12.60;50.80;;;12.87;53.96;101042.53;5044112;28;19928;-35
2024/01/26 07:56:39;;;;;;;;;;;12.60;50.80;;;12.87;53.29;101037.50;5053079;28;19925;-34
2024/01/26 07:59:07;;;;;;;;;;;12.60;50.80;;;12.88;52.93;101026.75;5053389;28;20023;-34
2024/01/26 08:01:35;;;;;;;;;;;12.60;50.80;;;12.86;52.68;101013.06;5052975;28;19924;-34
2024/01/26 08:04:03;;;;;;;;;;;12.60;50.80;;;12.87;53.30;101007.31;5052668;28;19936;-34
2024/01/26 08:06:32;;;;;;;;;;;12.60;50.80;;;12.88;53.15;101015.78;5052379;28;19931;-34
2024/01/26 08:09:00;;;;;;;;;;;12.60;50.80;;;12.87;53.14;101007.31;5053122;28;19935;-35
2024/01/26 08:11:30;;;;;;;;;;;12.60;50.80;;;12.92;53.00;101009.50;5053652;28;19925;-34
2024/01/26 08:14:00;;;;;;;;;;;12.60;50.80;;;12.90;53.10;100992.59;5052387;28;19948;-35
2024/01/26 08:16:28;;;;;;;;;;;12.60;50.80;;;12.90;52.93;100997.63;5052798;28;19963;-34
2024/01/26 08:18:56;;;;;;;;;;;12.60;50.80;;;12.90;52.84;100992.59;5052315;28;19924;-34
2024/01/26 08:21:25;;;;;;;;;;;12.70;50.80;;;12.89;53.13;100995.84;5052629;28;20438;-34
2024/01/26 08:23:53;;;;;;;;;;;12.70;50.80;;;12.89;53.37;101000.88;5051634;28;20388;-34
2024/01/26 08:26:21;;;;;;;;;;;12.60;50.80;;;12.90;53.46;101002.66;5052559;28;20392;-34
2024/01/26 08:28:50;;;;;;;;;;;12.70;50.80;;;12.92;53.11;100995.31;5052492;28;19925;-34
2024/01/26 08:31:19;;;;;;;;;;;12.70;50.90;;;12.92;53.61;100994.41;5052591;28;19925;-34
2024/01/26 08:33:47;;;;;;;;;;;12.70;50.80;;;12.92;53.55;101004.47;5051637;28;19932;-34
2024/01/26 08:36:15;;;;;;;;;;;12.70;50.90;;;12.90;53.05;101000.16;5052445;28;19971;-34
2024/01/26 08:38:43;;;;;;;;;;;12.60;50.90;;;12.90;53.03;101002.66;5052264;28;19929;-34
2024/01/26 08:41:11;;;;;;;;;;;12.70;51.00;;;12.92;53.13;100995.31;5052167;28;19925;-35
2024/01/26 08:43:39;;;;;;;;;;;12.70;51.00;;;12.90;54.13;100989.19;5051867;28;20412;-34
2024/01/26 08:46:08;;;;;;;;;;;12.70;51.10;;;12.89;53.42;100990.84;5052024;28;20300;-34
2024/01/26 08:48:36;;;;;;;;;;;12.70;51.20;;;12.87;53.89;100982.19;5052227;28;20372;-34
2024/01/26 08:51:05;;;;;;;;;;;12.60;51.10;;;12.90;53.51;100991.69;5055464;28;20016;-35
2024/01/26 08:53:33;;;;;;;;;;;12.70;51.30;;;12.90;53.66;101007.69;5051453;28;19958;-35
2024/01/26 08:56:03;;;;;;;;;;;12.70;51.30;;;12.88;53.87;101004.09;5051839;28;19925;-34
2024/01/26 08:58:31;;;;;;;;;;;12.70;51.30;;;12.90;53.79;100997.63;5052172;28;20011;-34
2024/01/26 09:01:00;;;;;;;;;;;12.60;51.20;;;12.88;53.81;101009.13;5052052;28;19979;-34
2024/01/26 09:03:29;;;;;;;;;;;12.70;51.30;;;12.87;53.92;100997.28;5051502;28;20438;-35
2024/01/26 09:05:57;;;;;;;;;;;12.60;51.40;;;12.87;53.98;100997.28;5051615;28;20300;-35
2024/01/26 09:08:25;;;;;;;;;;;12.60;51.40;;;12.88;54.16;100999.06;5052112;28;19931;-34
2024/01/26 09:10:53;;;;;;;;;;;12.60;51.40;;;12.88;53.71;101003.19;5051804;28;19931;-35
2024/01/26 09:13:21;;;;;;;;;;;12.60;51.50;;;12.89;53.88;100994.97;5051132;28;19935;-35
2024/01/26 09:15:49;;;;;;;;;;;12.60;51.50;;;12.88;54.58;100988.13;5051818;28;19931;-35
2024/01/26 09:18:17;;;;;;;;;;;12.70;51.50;;;12.87;53.80;100987.22;5052881;28;20335;-34
2024/01/26 09:20:49;;;;;;;;;;;12.60;51.40;;;12.89;54.08;100989.94;5054029;28;19925;-34
2024/01/26 09:23:18;;;;;;;;;;;12.60;51.50;;;12.87;54.27;100992.25;5052030;28;20335;-34
2024/01/26 09:25:46;;;;;;;;;;;12.60;51.50;;;12.88;53.84;100973.94;5052269;28;20312;-34
2024/01/26 09:28:14;;;;;;;;;;;12.60;51.60;;;12.88;54.13;100994.03;5052484;28;20027;-34
2024/01/26 09:30:42;;;;;;;;;;;12.60;51.60;;;12.86;54.60;100985.41;5053008;28;20343;-34
2024/01/26 09:33:10;;;;;;;;;;;12.60;51.60;;;12.84;54.61;100986.81;5051929;28;19971;-34
2024/01/26 09:35:38;;;;;;;;;;;12.60;51.70;;;12.86;54.68;100990.44;5052054;28;19925;-37
2024/01/26 09:38:07;;;;;;;;;;;12.60;51.60;;;12.88;54.12;100989.00;5051754;28;19925;-36
2024/01/26 09:40:35;;;;;;;;;;;12.60;51.60;;;12.86;55.04;100995.47;5053759;28;19932;-36
2024/01/26 09:43:04;;;;;;;;;;;12.60;51.80;;;12.88;53.96;101004.09;5052957;28;19936;-36
2024/01/26 09:45:31;;;;;;;;;;;12.60;51.80;;;12.86;54.96;101020.59;5052124;28;19925;-35
2024/01/26 09:48:00;;;;;;;;;;;12.60;51.80;;;12.86;54.61;101005.53;5051465;28;20012;-35
2024/01/26 09:50:28;;;;;;;;;;;12.60;51.90;;;12.88;54.25;101019.19;5055411;28;19936;-36
2024/01/26 09:52:57;;;;;;;;;;;12.60;52.00;;;12.86;54.50;101023.13;5051291;28;20077;-36
2024/01/26 09:55:26;;;;;;;;;;;12.60;51.90;;;12.89;53.92;101021.00;5052248;28;20288;-36
2024/01/26 09:57:55;;;;;;;;;;;12.60;52.00;;;12.86;54.31;101018.09;5052219;28;19976;-36
2024/01/26 10:00:24;;;;;;;;;;;12.60;52.10;;;12.88;54.06;101026.75;5051658;28;19925;-36
2024/01/26 10:02:52;;;;;;;;;;;12.70;52.20;;;12.89;55.38;101025.13;5050829;28;20019;-36
2024/01/26 10:05:20;;;;;;;;;;;12.70;52.20;;;12.87;54.77;101007.31;5051127;28;19947;-36
2024/01/26 10:07:48;;;;;;;;;;;12.70;52.30;;;12.89;55.29;101031.06;5051840;28;20004;-36
2024/01/26 10:10:17;;;;;;;;;;;12.60;52.20;;;12.90;54.27;101026.91;5051648;28;20028;-36
2024/01/26 10:12:46;;;;;;;;;;;12.70;52.20;;;12.90;54.76;101010.22;5050787;28;19924;-36
2024/01/26 10:15:14;;;;;;;;;;;12.70;52.20;;;12.92;55.06;101001.97;5051210;28;20023;-36
2024/01/26 10:17:44;;;;;;;;;;;12.70;52.20;;;12.90;55.12;101007.69;5051737;28;19979;-35
2024/01/26 10:20:14;;;;;;;;;;;12.70;52.20;;;12.91;54.32;100998.53;5051678;28;20535;-35
2024/01/26 10:22:43;;;;;;;;;;;12.70;52.20;;;12.93;54.36;100996.22;5052043;28;19924;-35
2024/01/26 10:25:11;;;;;;;;;;;12.70;52.20;;;12.91;54.95;100985.97;5055131;28;19925;-36
2024/01/26 10:27:40;;;;;;;;;;;12.70;52.20;;;12.92;54.93;100984.34;5054624;28;19925;-36
2024/01/26 10:30:11;;;;;;;;;;;12.70;52.30;;;12.93;54.99;100977.00;5054491;28;19925;-35
2024/01/26 10:32:39;;;;;;;;;;;12.70;52.20;;;12.94;55.05;100972.88;5054298;28;19972;-34
2024/01/26 10:35:08;;;;;;;;;;;12.70;52.30;;;12.94;54.53;100955.28;5054541;28;19931;-35
2024/01/26 10:37:38;;;;;;;;;;;12.70;52.40;;;12.93;54.45;100954.38;5055058;28;20300;-35
2024/01/26 10:40:09;;;;;;;;;;;12.70;52.20;;;12.94;54.93;100952.75;5054449;28;20203;-36
2024/01/26 10:42:37;;;;;;;;;;;12.70;52.30;;;12.93;54.38;100966.94;5054401;28;20377;-36
2024/01/26 10:45:06;;;;;;;;;;;12.70;52.30;;;12.94;54.56;100957.78;5055260;28;19972;-36
2024/01/26 10:47:40;;;;;;;;;;;12.70;52.20;;;12.94;54.87;100957.78;5054999;28;19925;-36
2024/01/26 10:50:09;;;;;;;;;;;12.70;52.30;;;12.89;54.59;100940.53;5058388;28;19924;-36
2024/01/26 10:52:37;;;;;;;;;;;12.70;52.40;;;12.94;55.03;100950.25;5053801;28;19932;-35
2024/01/26 10:55:07;;;;;;;;;;;12.70;52.30;;;12.93;55.13;100945.94;5054028;28;19960;-36
2024/01/26 10:57:35;;;;;;;;;;;12.70;52.40;;;12.94;55.00;100932.66;5052474;28;20446;-36
2024/01/26 11:00:04;;;;;;;;;;;12.70;52.40;;;12.93;54.80;100930.84;5054183;28;20217;-36
2024/01/26 11:02:34;;;;;;;;;;;12.70;52.40;;;12.94;54.75;100937.69;5053610;28;19925;-36
2024/01/26 11:05:07;;;;;;;;;;;12.70;52.40;;;12.93;54.62;100945.94;5054402;28;20364;-36
2024/01/26 11:07:35;;;;;;;;;;;12.70;52.40;;;12.95;55.06;100934.47;5054702;28;19980;-36
2024/01/26 11:10:04;;;;;;;;;;;12.70;52.40;;;12.94;54.69;100935.16;5045512;28;19933;-36
2024/01/26 11:12:34;;;;;;;;;;;12.70;52.40;;;12.93;54.70;100935.88;5054367;28;19925;-36
2024/01/26 11:15:05;;;;;;;;;;;12.70;52.60;;;12.93;54.80;100930.84;5054131;28;19979;-36